createdAt,value
2023-02-17T00:01:14.249Z,6.60
2023-02-17T00:03:41.672Z,6.46
2023-02-17T00:06:11.239Z,6.28
2023-02-17T00:08:38.669Z,6.30
2023-02-17T00:11:06.616Z,6.30
2023-02-17T00:13:34.501Z,6.14
2023-02-17T00:16:19.171Z,5.99
2023-02-17T00:18:47.931Z,6.09
2023-02-17T00:21:21.804Z,6.24
2023-02-17T00:23:52.316Z,6.25
2023-02-17T00:26:20.884Z,6.29
2023-02-17T00:28:48.983Z,6.26
2023-02-17T00:31:19.284Z,6.26
2023-02-17T00:33:47.270Z,6.24
2023-02-17T00:36:17.929Z,6.21
2023-02-17T00:38:48.110Z,6.25
2023-02-17T00:41:17.346Z,6.16
2023-02-17T00:43:45.945Z,6.12
2023-02-17T00:46:14.080Z,6.27
2023-02-17T00:48:42.197Z,6.26
2023-02-17T00:51:10.356Z,6.29
2023-02-17T00:53:38.024Z,6.31
2023-02-17T00:56:08.463Z,6.20
2023-02-17T00:58:36.769Z,5.92
2023-02-17T01:01:04.757Z,5.83
2023-02-17T01:03:32.387Z,5.90
2023-02-17T01:05:59.731Z,5.87
2023-02-17T01:08:27.122Z,5.97
2023-02-17T01:10:54.493Z,5.98
2023-02-17T01:13:21.904Z,5.84
2023-02-17T01:15:51.978Z,5.78
2023-02-17T01:18:21.911Z,5.91
2023-02-17T01:20:51.078Z,6.02
2023-02-17T01:23:18.767Z,5.90
2023-02-17T01:25:47.736Z,5.89
2023-02-17T01:28:19.904Z,5.83
2023-02-17T01:30:47.816Z,5.80
2023-02-17T01:33:15.454Z,5.72
2023-02-17T01:35:42.890Z,5.72
2023-02-17T01:38:13.029Z,5.57
2023-02-17T01:40:48.031Z,5.45
2023-02-17T01:43:17.659Z,5.38
2023-02-17T01:45:56.465Z,5.38
2023-02-17T01:48:38.536Z,5.35
2023-02-17T01:51:21.483Z,5.53
2023-02-17T01:54:02.165Z,5.37
2023-02-17T01:56:35.513Z,5.52
2023-02-17T01:59:10.502Z,5.51
2023-02-17T02:01:39.411Z,5.56
2023-02-17T02:04:08.134Z,5.38
2023-02-17T02:06:38.536Z,5.26
2023-02-17T02:09:10.987Z,5.23
2023-02-17T02:11:38.445Z,5.44
2023-02-17T02:14:08.602Z,5.58
2023-02-17T02:16:53.326Z,5.58
2023-02-17T02:19:47.179Z,5.61
2023-02-17T02:22:28.535Z,5.46
2023-02-17T02:25:19.919Z,5.46
2023-02-17T02:28:12.433Z,5.27
2023-02-17T02:30:58.829Z,5.25
2023-02-17T02:33:35.321Z,5.15
2023-02-17T02:36:26.305Z,5.09
2023-02-17T02:39:06.537Z,4.98
2023-02-17T02:41:41.782Z,4.97
2023-02-17T02:44:12.694Z,4.99
2023-02-17T02:46:40.074Z,4.93
2023-02-17T02:49:08.640Z,4.81
2023-02-17T02:51:53.696Z,4.81
2023-02-17T02:54:37.868Z,4.75
2023-02-17T02:57:42.210Z,4.74
2023-02-17T03:00:25.753Z,4.66
2023-02-17T03:02:57.336Z,4.61
2023-02-17T03:05:57.400Z,4.62
2023-02-17T03:08:33.406Z,4.43
2023-02-17T03:11:01.661Z,4.30
2023-02-17T03:13:38.023Z,4.43
2023-02-17T03:16:07.768Z,4.48
2023-02-17T03:18:36.267Z,4.54
2023-02-17T03:21:15.534Z,4.29
2023-02-17T03:23:43.562Z,4.15
2023-02-17T03:26:10.990Z,4.21
2023-02-17T03:28:38.337Z,4.40
2023-02-17T03:31:05.795Z,4.38
2023-02-17T03:33:33.259Z,4.40
2023-02-17T03:36:00.623Z,4.48
2023-02-17T03:38:27.994Z,4.49
2023-02-17T03:40:55.444Z,4.52
2023-02-17T03:43:22.813Z,4.59
2023-02-17T03:45:50.173Z,4.73
2023-02-17T03:48:17.549Z,4.66
2023-02-17T03:50:44.920Z,4.69
2023-02-17T03:53:12.451Z,4.53
2023-02-17T03:55:39.806Z,4.48
2023-02-17T03:58:07.162Z,4.45
2023-02-17T04:00:34.583Z,4.49
2023-02-17T04:03:02.174Z,4.50
2023-02-17T04:05:29.557Z,4.47
2023-02-17T04:07:56.913Z,4.48
2023-02-17T04:10:24.288Z,4.47
2023-02-17T04:12:51.667Z,4.34
2023-02-17T04:15:19.082Z,4.41
2023-02-17T04:17:46.458Z,4.29
2023-02-17T04:20:14.221Z,4.21
2023-02-17T04:22:41.771Z,4.12
2023-02-17T04:25:09.189Z,4.23
2023-02-17T04:27:36.563Z,4.17
2023-02-17T04:30:04.897Z,4.21
2023-02-17T04:32:32.277Z,4.06
2023-02-17T04:34:59.664Z,4.05
2023-02-17T04:37:27.084Z,4.03
2023-02-17T04:39:54.444Z,4.11
2023-02-17T04:42:21.780Z,4.06
2023-02-17T04:44:49.866Z,4.09
2023-02-17T04:47:17.276Z,4.05
2023-02-17T04:49:44.652Z,4.00
2023-02-17T04:52:12.072Z,4.04
2023-02-17T04:54:39.405Z,3.94
2023-02-17T04:57:06.772Z,3.95
2023-02-17T04:59:34.178Z,3.94
2023-02-17T05:02:01.659Z,3.89
2023-02-17T05:04:29.309Z,3.90
2023-02-17T05:06:57.136Z,3.76
2023-02-17T05:09:24.523Z,3.65
2023-02-17T05:11:51.972Z,3.67
2023-02-17T05:14:19.424Z,3.58
2023-02-17T05:16:46.828Z,3.44
2023-02-17T05:19:14.182Z,3.58
2023-02-17T05:21:41.531Z,3.61
2023-02-17T05:24:08.895Z,3.55
2023-02-17T05:26:36.327Z,3.45
2023-02-17T05:29:04.201Z,3.26
2023-02-17T05:31:31.835Z,3.20
2023-02-17T05:33:59.193Z,2.98
2023-02-17T05:36:26.585Z,3.03
2023-02-17T05:38:53.944Z,2.93
2023-02-17T05:41:21.713Z,2.99
2023-02-17T05:43:49.067Z,3.06
2023-02-17T05:46:16.497Z,2.85
2023-02-17T05:48:44.346Z,2.71
2023-02-17T05:51:13.894Z,2.70
2023-02-17T05:53:41.321Z,2.72
2023-02-17T05:56:09.123Z,2.69
2023-02-17T05:58:36.648Z,2.61
2023-02-17T06:01:10.284Z,2.72
2023-02-17T06:03:38.621Z,2.73
2023-02-17T06:06:07.419Z,2.67
2023-02-17T06:08:36.148Z,2.61
2023-02-17T06:11:04.438Z,2.64
2023-02-17T06:13:31.844Z,2.57
2023-02-17T06:15:59.623Z,2.59
2023-02-17T06:18:27.148Z,2.35
2023-02-17T06:20:58.173Z,2.31
2023-02-17T06:23:26.768Z,2.27
2023-02-17T06:25:54.763Z,2.26
2023-02-17T06:28:22.165Z,2.33
2023-02-17T06:30:49.616Z,2.25
2023-02-17T06:33:16.968Z,2.42
2023-02-17T06:35:48.962Z,2.33
2023-02-17T06:38:16.394Z,2.23
2023-02-17T06:40:43.830Z,2.17
2023-02-17T06:43:11.349Z,2.21
2023-02-17T06:45:38.838Z,2.21
2023-02-17T06:48:06.299Z,2.19
2023-02-17T06:50:33.681Z,2.07
2023-02-17T06:53:01.048Z,2.03
2023-02-17T06:55:28.436Z,1.92
2023-02-17T06:57:56.825Z,1.84
2023-02-17T07:00:24.341Z,1.99
2023-02-17T07:02:51.750Z,1.98
2023-02-17T07:05:19.320Z,2.11
2023-02-17T07:07:46.672Z,2.04
2023-02-17T07:10:15.233Z,2.11
2023-02-17T07:12:42.543Z,2.35
2023-02-17T07:15:12.283Z,2.36
2023-02-17T07:17:39.893Z,2.59
2023-02-17T07:20:08.132Z,2.57
2023-02-17T07:22:35.451Z,2.73
2023-02-17T07:25:03.039Z,2.90
2023-02-17T07:27:31.716Z,2.79
2023-02-17T07:29:59.091Z,3.11
2023-02-17T07:32:26.512Z,3.20
2023-02-17T07:34:53.939Z,3.26
2023-02-17T07:37:21.906Z,3.18
2023-02-17T07:39:49.322Z,3.29
2023-02-17T07:42:41.803Z,3.41
2023-02-17T07:45:09.356Z,3.53
2023-02-17T07:47:36.657Z,3.57
2023-02-17T07:50:04.177Z,3.62
2023-02-17T07:52:31.657Z,3.69
2023-02-17T07:54:59.000Z,3.80
2023-02-17T07:57:26.501Z,3.85
2023-02-17T07:59:53.897Z,3.97
2023-02-17T08:02:21.953Z,4.17
2023-02-17T08:04:51.912Z,4.18
2023-02-17T08:07:19.437Z,4.38
2023-02-17T08:10:05.326Z,4.51
2023-02-17T08:12:51.238Z,4.67
2023-02-17T08:15:18.804Z,4.70
2023-02-17T08:17:46.252Z,4.81
2023-02-17T08:20:15.680Z,4.88
2023-02-17T08:22:43.051Z,5.03
2023-02-17T08:25:10.527Z,5.17
2023-02-17T08:27:37.870Z,5.69
2023-02-17T08:30:06.114Z,5.75
2023-02-17T08:32:33.716Z,6.05
2023-02-17T08:35:01.830Z,6.10
2023-02-17T08:37:30.865Z,6.37
2023-02-17T08:40:01.587Z,6.73
2023-02-17T08:42:31.676Z,7.11
2023-02-17T08:44:59.066Z,7.00
2023-02-17T08:47:26.430Z,7.17
2023-02-17T08:49:53.867Z,7.49
2023-02-17T08:52:21.314Z,8.04
2023-02-17T08:54:50.932Z,7.78
2023-02-17T08:57:20.523Z,8.18
2023-02-17T08:59:48.344Z,8.42
2023-02-17T09:02:16.855Z,8.54
2023-02-17T09:04:45.064Z,8.70
2023-02-17T09:07:14.307Z,9.06
2023-02-17T09:09:41.953Z,9.58
2023-02-17T09:12:09.431Z,9.99
2023-02-17T09:14:36.806Z,9.83
2023-02-17T09:17:05.231Z,9.59
2023-02-17T09:19:32.612Z,8.94
2023-02-17T09:22:00.000Z,8.72
2023-02-17T09:24:28.717Z,8.59
2023-02-17T09:26:56.070Z,8.41
2023-02-17T09:29:23.484Z,8.48
2023-02-17T09:31:51.040Z,8.55
2023-02-17T09:34:18.600Z,8.32
2023-02-17T09:36:46.238Z,8.44
2023-02-17T09:39:14.930Z,8.50
2023-02-17T09:41:45.710Z,8.54
2023-02-17T09:44:33.963Z,8.69
2023-02-17T09:47:02.652Z,8.69
2023-02-17T09:49:45.080Z,8.67
2023-02-17T09:52:12.478Z,8.70
2023-02-17T09:55:04.477Z,8.85
2023-02-17T09:57:40.198Z,8.75
2023-02-17T10:00:15.775Z,8.94
2023-02-17T10:02:48.434Z,9.02
2023-02-17T10:05:22.217Z,9.25
2023-02-17T10:08:21.830Z,9.44
2023-02-17T10:10:56.456Z,9.23
2023-02-17T10:13:28.076Z,9.35
2023-02-17T10:15:58.586Z,9.45
2023-02-17T10:18:38.564Z,9.49
2023-02-17T10:21:13.268Z,9.52
2023-02-17T10:23:40.922Z,9.62
2023-02-17T10:26:19.636Z,9.66
2023-02-17T10:29:13.795Z,9.47
2023-02-17T10:31:53.120Z,9.65
2023-02-17T10:34:38.379Z,9.60
2023-02-17T10:37:23.474Z,9.62
2023-02-17T10:39:53.586Z,9.77
2023-02-17T10:42:21.233Z,9.75
2023-02-17T10:44:52.620Z,9.64
2023-02-17T10:47:21.447Z,9.68
2023-02-17T10:49:51.971Z,9.69
2023-02-17T10:52:23.210Z,9.92
2023-02-17T10:55:01.138Z,10.06
2023-02-17T10:57:35.796Z,10.04
2023-02-17T11:00:09.299Z,10.19
2023-02-17T11:02:39.472Z,10.40
2023-02-17T11:05:07.984Z,10.51
2023-02-17T11:07:42.350Z,10.40
2023-02-17T11:10:23.851Z,10.38
2023-02-17T11:12:51.963Z,10.47
2023-02-17T11:15:22.548Z,10.55
2023-02-17T11:17:50.955Z,10.75
2023-02-17T11:20:21.040Z,11.02
2023-02-17T11:23:06.193Z,10.66
2023-02-17T11:25:36.479Z,10.72
2023-02-17T11:28:24.008Z,10.71
2023-02-17T11:31:02.664Z,10.68
2023-02-17T11:33:30.106Z,10.78
2023-02-17T11:35:58.063Z,10.82
2023-02-17T11:38:34.615Z,10.78
2023-02-17T11:41:04.741Z,10.87
2023-02-17T11:43:33.163Z,10.83
2023-02-17T11:46:15.793Z,10.85
2023-02-17T11:48:43.110Z,11.11
2023-02-17T11:51:12.892Z,11.27
2023-02-17T11:54:18.377Z,11.21
2023-02-17T11:57:12.735Z,11.22
2023-02-17T12:00:00.898Z,11.17
2023-02-17T12:02:37.400Z,11.29
2023-02-17T12:05:04.721Z,11.36
2023-02-17T12:07:45.598Z,11.30
2023-02-17T12:11:03.370Z,11.40
2023-02-17T12:13:55.591Z,11.52
2023-02-17T12:16:53.770Z,11.62
2023-02-17T12:19:27.177Z,11.58
2023-02-17T12:22:11.711Z,11.60
2023-02-17T12:25:21.291Z,11.64
2023-02-17T12:28:10.831Z,11.76
2023-02-17T12:30:55.137Z,11.66
2023-02-17T12:33:25.611Z,11.61
2023-02-17T12:36:02.165Z,11.69
2023-02-17T12:38:54.060Z,11.62
2023-02-17T12:41:25.703Z,11.49
2023-02-17T12:43:59.851Z,11.47
2023-02-17T12:46:41.254Z,11.45
2023-02-17T12:49:23.549Z,11.57
2023-02-17T12:51:55.994Z,11.55
2023-02-17T12:54:29.960Z,11.56
2023-02-17T12:57:24.610Z,11.60
2023-02-17T12:59:58.666Z,11.70
2023-02-17T13:02:26.591Z,11.87
2023-02-17T13:04:59.969Z,11.97
2023-02-17T13:07:57.586Z,12.18
2023-02-17T13:10:46.514Z,12.03
2023-02-17T13:13:35.075Z,12.08
2023-02-17T13:16:13.913Z,12.10
2023-02-17T13:18:52.278Z,12.23
2023-02-17T13:21:27.507Z,12.27
2023-02-17T13:24:07.829Z,12.38
2023-02-17T13:26:40.326Z,12.11
2023-02-17T13:29:29.425Z,12.03
2023-02-17T13:32:15.267Z,12.08
2023-02-17T13:35:05.810Z,12.10
2023-02-17T13:37:33.162Z,12.22
2023-02-17T13:40:45.809Z,12.27
2023-02-17T13:43:18.094Z,12.45
2023-02-17T13:46:06.177Z,12.54
2023-02-17T13:48:40.539Z,12.49
2023-02-17T13:51:25.631Z,12.61
2023-02-17T13:53:53.356Z,12.73
2023-02-17T13:56:26.212Z,12.58
2023-02-17T13:58:54.143Z,12.75
2023-02-17T14:01:29.176Z,12.79
2023-02-17T14:04:04.745Z,12.70
2023-02-17T14:06:38.867Z,12.77
2023-02-17T14:09:30.781Z,12.91
2023-02-17T14:12:17.218Z,13.24
2023-02-17T14:14:52.259Z,13.20
2023-02-17T14:17:46.112Z,13.55
2023-02-17T14:20:33.126Z,13.38
2023-02-17T14:23:06.583Z,13.42
2023-02-17T14:25:37.338Z,13.53
2023-02-17T14:28:17.610Z,13.49
2023-02-17T14:30:45.161Z,13.32
2023-02-17T14:33:16.342Z,13.17
2023-02-17T14:36:11.557Z,13.18
2023-02-17T14:38:42.543Z,13.16
2023-02-17T14:41:10.335Z,12.89
2023-02-17T14:43:37.865Z,13.02
2023-02-17T14:46:05.706Z,13.02
2023-02-17T14:48:33.310Z,13.08
2023-02-17T14:51:00.754Z,13.16
2023-02-17T14:53:31.450Z,13.06
2023-02-17T14:56:15.676Z,13.01
2023-02-17T14:58:43.218Z,13.01
2023-02-17T15:01:15.946Z,13.09
2023-02-17T15:03:43.903Z,13.09
2023-02-17T15:06:41.832Z,13.33
2023-02-17T15:09:14.150Z,13.05
2023-02-17T15:11:45.649Z,13.15
2023-02-17T15:14:15.109Z,13.08
2023-02-17T15:16:42.929Z,13.14
2023-02-17T15:19:11.568Z,13.14
2023-02-17T15:21:43.206Z,13.17
2023-02-17T15:24:31.149Z,13.12
2023-02-17T15:27:01.663Z,13.28
2023-02-17T15:29:29.777Z,13.29
2023-02-17T15:32:01.596Z,13.22
2023-02-17T15:34:33.590Z,13.12
2023-02-17T15:37:02.037Z,13.15
2023-02-17T15:39:29.577Z,13.04
2023-02-17T15:42:04.615Z,12.92
2023-02-17T15:44:47.592Z,12.99
2023-02-17T15:47:19.081Z,13.01
2023-02-17T15:49:46.913Z,13.05
2023-02-17T15:52:14.913Z,12.92
2023-02-17T15:54:43.743Z,12.77
2023-02-17T15:57:21.094Z,12.78
2023-02-17T15:59:49.141Z,12.69
2023-02-17T16:02:21.161Z,12.67
2023-02-17T16:04:48.935Z,12.61
2023-02-17T16:07:16.331Z,12.57
2023-02-17T16:09:43.751Z,12.52
2023-02-17T16:12:26.635Z,12.41
2023-02-17T16:14:55.368Z,12.32
2023-02-17T16:17:23.137Z,12.27
2023-02-17T16:19:50.701Z,12.22
2023-02-17T16:22:18.188Z,12.18
2023-02-17T16:24:45.674Z,12.11
2023-02-17T16:27:16.343Z,11.99
2023-02-17T16:29:43.874Z,11.90
2023-02-17T16:32:12.994Z,11.81
2023-02-17T16:34:40.767Z,11.87
2023-02-17T16:37:17.311Z,11.82
2023-02-17T16:39:44.798Z,11.80
2023-02-17T16:42:14.887Z,11.81
2023-02-17T16:44:42.699Z,11.77
2023-02-17T16:47:19.921Z,11.73
2023-02-17T16:49:47.993Z,11.67
2023-02-17T16:52:33.161Z,11.67
2023-02-17T16:55:00.641Z,11.60
2023-02-17T16:57:28.006Z,11.52
2023-02-17T16:59:56.048Z,11.51
2023-02-17T17:02:23.686Z,11.45
2023-02-17T17:04:51.059Z,11.45
2023-02-17T17:07:18.649Z,11.36
2023-02-17T17:10:06.798Z,11.24
2023-02-17T17:12:33.615Z,11.20
2023-02-17T17:15:01.003Z,11.29
2023-02-17T17:17:29.752Z,11.19
2023-02-17T17:19:57.239Z,11.21
2023-02-17T17:22:24.598Z,11.27
2023-02-17T17:24:51.981Z,11.26
2023-02-17T17:27:19.408Z,11.21
2023-02-17T17:29:54.388Z,11.26
2023-02-17T17:32:24.875Z,11.18
2023-02-17T17:35:01.109Z,11.14
2023-02-17T17:37:28.657Z,11.01
2023-02-17T17:39:57.637Z,10.92
2023-02-17T17:42:30.774Z,10.94
2023-02-17T17:44:59.603Z,10.79
2023-02-17T17:47:30.250Z,10.95
2023-02-17T17:49:58.863Z,10.87
2023-02-17T17:52:29.185Z,10.79
2023-02-17T17:54:56.866Z,10.74
2023-02-17T17:57:24.298Z,10.69
2023-02-17T17:59:54.416Z,10.75
2023-02-17T18:02:22.882Z,10.77
2023-02-17T18:04:55.113Z,10.73
2023-02-17T18:07:37.316Z,10.72
2023-02-17T18:10:13.229Z,10.77
2023-02-17T18:12:50.974Z,10.72
2023-02-17T18:15:21.832Z,10.65
2023-02-17T18:17:51.201Z,10.51
2023-02-17T18:20:21.181Z,10.43
2023-02-17T18:23:14.918Z,10.39
2023-02-17T18:25:42.451Z,10.34
2023-02-17T18:28:11.703Z,10.36
2023-02-17T18:30:39.290Z,10.38
2023-02-17T18:33:06.727Z,10.26
2023-02-17T18:35:36.006Z,10.21
2023-02-17T18:38:03.544Z,10.28
2023-02-17T18:40:31.397Z,10.27
2023-02-17T18:42:59.459Z,10.13
2023-02-17T18:45:26.952Z,10.13
2023-02-17T18:47:54.349Z,10.10
2023-02-17T18:50:21.992Z,10.14
2023-02-17T18:52:49.259Z,10.11
2023-02-17T18:55:16.520Z,10.08
2023-02-17T18:57:44.882Z,10.03
2023-02-17T19:00:15.539Z,10.07
2023-02-17T19:02:43.133Z,10.04
2023-02-17T19:05:11.452Z,10.07
2023-02-17T19:07:38.862Z,10.06
2023-02-17T19:10:06.745Z,9.99
2023-02-17T19:12:34.381Z,9.92
2023-02-17T19:15:20.965Z,9.77
2023-02-17T19:17:48.813Z,9.73
2023-02-17T19:20:17.184Z,9.81
2023-02-17T19:22:44.506Z,9.82
2023-02-17T19:25:11.811Z,9.86
2023-02-17T19:27:41.945Z,9.75
2023-02-17T19:30:10.700Z,9.71
2023-02-17T19:32:38.325Z,9.64
2023-02-17T19:35:05.973Z,9.62
2023-02-17T19:37:34.849Z,9.63
2023-02-17T19:40:02.137Z,9.52
2023-02-17T19:42:30.383Z,9.50
2023-02-17T19:44:57.732Z,9.43
2023-02-17T19:47:25.133Z,9.35
2023-02-17T19:49:52.543Z,9.32
2023-02-17T19:52:21.118Z,9.30
2023-02-17T19:54:50.496Z,9.29
2023-02-17T19:57:18.452Z,9.26
2023-02-17T19:59:45.904Z,9.24
2023-02-17T20:02:14.807Z,9.21
2023-02-17T20:04:43.013Z,9.12
2023-02-17T20:07:10.463Z,9.05
2023-02-17T20:09:37.929Z,8.95
2023-02-17T20:12:05.630Z,8.91
2023-02-17T20:14:32.986Z,8.74
2023-02-17T20:17:00.936Z,8.74
2023-02-17T20:19:28.735Z,8.68
2023-02-17T20:21:56.142Z,8.65
2023-02-17T20:24:23.551Z,8.59
2023-02-17T20:26:52.053Z,8.43
2023-02-17T20:29:19.510Z,8.44
2023-02-17T20:31:47.174Z,8.51
2023-02-17T20:34:33.747Z,8.49
2023-02-17T20:37:01.818Z,8.54
2023-02-17T20:39:29.338Z,8.42
2023-02-17T20:41:56.991Z,8.41
2023-02-17T20:44:27.684Z,8.41
2023-02-17T20:46:57.041Z,8.45
2023-02-17T20:49:25.532Z,8.40
2023-02-17T20:51:53.651Z,8.39
2023-02-17T20:54:21.169Z,8.39
2023-02-17T20:56:48.825Z,8.34
2023-02-17T20:59:16.340Z,8.26
2023-02-17T21:01:43.874Z,8.28
2023-02-17T21:04:14.010Z,8.27
2023-02-17T21:06:43.004Z,8.29
2023-02-17T21:09:16.430Z,8.35
2023-02-17T21:11:45.544Z,8.25
2023-02-17T21:14:13.457Z,8.19
2023-02-17T21:16:40.961Z,8.18
2023-02-17T21:19:08.910Z,8.23
2023-02-17T21:21:36.353Z,8.10
2023-02-17T21:24:04.269Z,8.17
2023-02-17T21:26:33.325Z,8.22
2023-02-17T21:29:00.676Z,8.24
2023-02-17T21:31:31.588Z,8.18
2023-02-17T21:33:59.424Z,8.17
2023-02-17T21:36:29.059Z,8.22
2023-02-17T21:38:57.800Z,8.16
2023-02-17T21:41:27.718Z,8.09
2023-02-17T21:44:13.780Z,8.14
2023-02-17T21:46:43.028Z,8.08
2023-02-17T21:49:11.219Z,7.94
2023-02-17T21:51:39.602Z,7.89
2023-02-17T21:54:08.059Z,7.87
2023-02-17T21:56:36.376Z,7.82
2023-02-17T21:59:04.687Z,7.83
2023-02-17T22:01:32.179Z,7.84
2023-02-17T22:03:59.920Z,7.67
2023-02-17T22:06:29.989Z,7.67
2023-02-17T22:08:58.377Z,7.60
2023-02-17T22:11:31.476Z,7.59
2023-02-17T22:14:04.133Z,7.54
2023-02-17T22:16:34.069Z,7.59
2023-02-17T22:19:02.855Z,7.34
2023-02-17T22:21:30.361Z,7.36
2023-02-17T22:23:58.875Z,7.34
2023-02-17T22:26:27.539Z,7.43
2023-02-17T22:28:55.667Z,7.37
2023-02-17T22:31:26.711Z,7.33
2023-02-17T22:33:56.845Z,7.33
2023-02-17T22:36:25.190Z,7.27
2023-02-17T22:38:53.944Z,7.22
2023-02-17T22:41:23.879Z,7.29
2023-02-17T22:43:51.680Z,7.26
2023-02-17T22:46:21.828Z,7.09
2023-02-17T22:48:50.807Z,7.11
2023-02-17T22:51:24.339Z,7.02
2023-02-17T22:53:51.991Z,7.06
2023-02-17T22:56:20.662Z,7.07
2023-02-17T22:58:50.500Z,7.02
2023-02-17T23:01:20.824Z,6.98
2023-02-17T23:03:53.911Z,6.87
2023-02-17T23:06:28.290Z,7.00
2023-02-17T23:08:56.312Z,7.16
2023-02-17T23:11:46.268Z,7.02
2023-02-17T23:14:14.240Z,7.11
2023-02-17T23:16:42.560Z,7.13
2023-02-17T23:19:12.956Z,7.01
2023-02-17T23:21:48.449Z,7.01
2023-02-17T23:24:17.479Z,6.97
2023-02-17T23:26:45.478Z,6.79
2023-02-17T23:29:14.070Z,6.84
2023-02-17T23:31:41.444Z,6.86
2023-02-17T23:34:09.038Z,6.91
2023-02-17T23:36:39.210Z,6.93
2023-02-17T23:39:07.211Z,6.83
2023-02-17T23:41:36.051Z,6.75
2023-02-17T23:44:04.527Z,6.72
2023-02-17T23:46:32.118Z,6.72
2023-02-17T23:48:59.539Z,6.68
2023-02-17T23:51:26.886Z,6.78
2023-02-17T23:53:54.319Z,6.79
2023-02-17T23:56:32.485Z,6.81
2023-02-17T23:59:00.483Z,6.72
